Time;durP1;ratioP1;P1;durP2;ratioP2;P2;SDS_P1;SDS_P2;PMS_P1;PMS_P2;Temp;Humidity;BMP_temperature;BMP_pressure;BME280_temperature;BME280_humidity;BME280_pressure;Samples;Min_cycle;Max_cycle;Signal;HPM_P1;HPM_P2
2022/06/29 00:00:32;;;;;;;6.22;1.50;;;;;;;21.86;34.50;100168.69;5114919;28;20052;-69
2022/06/29 00:02:57;;;;;;;3.92;1.42;;;;;;;21.78;35.04;100171.44;5126391;27;20031;-69
2022/06/29 00:05:25;;;;;;;2.67;1.40;;;;;;;21.69;34.88;100167.97;5135492;27;20027;-72
2022/06/29 00:07:52;;;;;;;3.33;1.20;;;;;;;21.60;35.27;100169.88;5135041;27;20045;-71
2022/06/29 00:10:18;;;;;;;5.28;1.55;;;;;;;21.59;35.17;100172.72;5136014;27;20451;-70
2022/06/29 00:12:45;;;;;;;6.40;1.85;;;;;;;21.57;35.37;100178.28;5134993;27;20035;-71
2022/06/29 00:15:11;;;;;;;3.45;1.70;;;;;;;21.50;35.48;100174.63;5135492;27;20027;-72
2022/06/29 00:17:37;;;;;;;6.43;1.50;;;;;;;21.46;35.49;100181.38;5134971;27;20023;-70
2022/06/29 00:20:05;;;;;;;6.70;1.60;;;;;;;21.42;35.76;100171.97;5135480;27;20027;-70
2022/06/29 00:22:31;;;;;;;4.38;1.63;;;;;;;21.38;35.98;100176.03;5134732;27;20039;-71
2022/06/29 00:24:57;;;;;;;6.22;1.60;;;;;;;21.30;35.94;100175.06;5135243;27;20153;-70
2022/06/29 00:27:23;;;;;;;4.05;1.60;;;;;;;21.29;35.96;100184.13;5134555;27;20035;-71
2022/06/29 00:29:49;;;;;;;5.55;2.20;;;;;;;21.29;35.91;100175.25;5134832;27;20031;-72
2022/06/29 00:32:15;;;;;;;4.78;1.63;;;;;;;21.25;35.99;100179.28;5133830;27;20486;-70
2022/06/29 00:34:41;;;;;;;5.43;1.83;;;;;;;21.20;36.04;100182.50;5134955;27;20067;-70
2022/06/29 00:37:06;;;;;;;3.90;1.85;;;;;;;21.21;36.21;100188.72;5134925;27;20538;-70
2022/06/29 00:39:32;;;;;;;5.10;1.60;;;;;;;21.17;36.08;100181.03;5135196;27;20054;-71
2022/06/29 00:41:58;;;;;;;4.60;2.35;;;;;;;21.12;36.45;100182.53;5134552;27;20058;-70
2022/06/29 00:44:23;;;;;;;4.60;1.92;;;;;;;21.12;36.58;100182.53;5134588;27;20141;-69
2022/06/29 00:47:07;;;;;;;3.17;1.83;;;;;;;21.03;36.80;100176.34;5134337;27;20042;-70
2022/06/29 00:49:34;;;;;;;4.97;1.63;;;;;;;21.00;36.91;100174.84;5134985;27;20038;-70
2022/06/29 00:52:08;;;;;;;2.58;1.38;;;;;;;21.00;36.86;100176.72;5133672;27;20034;-71
2022/06/29 00:54:37;;;;;;;3.33;1.70;;;;;;;20.95;37.11;100171.00;5134685;27;20041;-70
2022/06/29 00:57:07;;;;;;;3.00;1.80;;;;;;;20.92;37.13;100172.19;5134617;27;20046;-69
2022/06/29 00:59:42;;;;;;;7.90;1.55;;;;;;;20.86;37.31;100167.50;5134439;27;20051;-69
2022/06/29 01:02:07;;;;;;;8.68;1.75;;;;;;;20.77;37.11;100166.69;5133444;27;20064;-70
2022/06/29 01:04:33;;;;;;;4.82;2.05;;;;;;;20.70;37.48;100168.34;5134470;27;20034;-70
2022/06/29 01:06:58;;;;;;;4.43;1.60;;;;;;;20.68;37.59;100165.00;5134604;27;20027;-69
2022/06/29 01:09:24;;;;;;;5.80;1.80;;;;;;;20.69;37.38;100161.28;5133821;27;20046;-70
2022/06/29 01:11:50;;;;;;;3.58;1.92;;;;;;;20.73;37.51;100163.47;5133171;27;20042;-70
2022/06/29 01:14:16;;;;;;;4.43;1.77;;;;;;;20.77;37.58;100163.97;5133275;27;20490;-70
2022/06/29 01:16:42;;;;;;;2.45;1.50;;;;;;;20.77;37.29;100157.78;5134042;27;20035;-71
2022/06/29 01:19:08;;;;;;;4.65;2.00;;;;;;;20.80;37.29;100165.50;5134473;27;20494;-70
2022/06/29 01:21:35;;;;;;;6.07;2.15;;;;;;;20.82;37.15;100164.31;5134052;27;20072;-70
2022/06/29 01:24:01;;;;;;;5.93;1.80;;;;;;;20.68;37.19;100167.69;5133423;27;20427;-72
2022/06/29 01:26:27;;;;;;;4.82;1.73;;;;;;;20.66;37.67;100161.63;5133190;27;20035;-70
2022/06/29 01:28:52;;;;;;;3.33;1.70;;;;;;;20.68;37.62;100165.81;5133022;27;20035;-70
2022/06/29 01:31:19;;;;;;;4.10;1.77;;;;;;;20.67;37.22;100163.31;5134132;27;20023;-72
2022/06/29 01:33:48;;;;;;;6.82;2.00;;;;;;;20.57;37.67;100160.81;5133798;27;20030;-70
2022/06/29 01:36:16;;;;;;;10.73;2.10;;;;;;;20.53;37.77;100170.22;5133355;27;20027;-71
2022/06/29 01:38:42;;;;;;;3.80;1.95;;;;;;;20.46;37.78;100169.25;5133755;27;20027;-71
2022/06/29 01:41:10;;;;;;;3.33;1.80;;;;;;;20.37;37.83;100168.41;5134131;27;20080;-70
2022/06/29 01:43:36;;;;;;;2.95;1.60;;;;;;;20.38;37.80;100175.47;5133611;27;20034;-72
2022/06/29 01:46:02;;;;;;;4.07;1.92;;;;;;;20.34;37.90;100176.81;5133699;27;20076;-71
2022/06/29 01:48:27;;;;;;;7.63;2.13;;;;;;;20.30;38.08;100172.75;5133139;27;20034;-72
2022/06/29 01:50:53;;;;;;;5.65;1.83;;;;;;;20.24;38.25;100166.22;5133851;27;20053;-72
2022/06/29 01:53:19;;;;;;;4.38;1.73;;;;;;;20.26;38.29;100173.13;5133360;27;20039;-72
2022/06/29 01:55:45;;;;;;;7.18;2.03;;;;;;;20.30;38.32;100175.44;5133848;27;20046;-73
2022/06/29 01:58:11;;;;;;;5.38;1.83;;;;;;;20.27;38.38;100168.56;5131998;27;20035;-73
2022/06/29 02:00:37;;;;;;;7.60;1.90;;;;;;;20.25;38.31;100171.44;5133404;27;20054;-73
2022/06/29 02:03:03;;;;;;;5.38;1.50;;;;;;;20.25;38.47;100170.59;5133318;28;20081;-73
2022/06/29 02:05:28;;;;;;;5.53;1.80;;;;;;;20.28;38.24;100172.94;5133441;28;20038;-73
2022/06/29 02:07:54;;;;;;;3.90;1.70;;;;;;;20.23;38.39;100169.91;5132416;28;20043;-73
2022/06/29 02:10:19;;;;;;;5.85;1.55;;;;;;;20.21;38.50;100178.16;5133391;28;20027;-73
2022/06/29 02:12:44;;;;;;;2.97;1.67;;;;;;;20.16;38.46;100172.44;5133409;28;20081;-73
2022/06/29 02:15:11;;;;;;;5.00;1.92;;;;;;;20.14;38.40;100174.47;5133819;28;20109;-72
2022/06/29 02:17:36;;;;;;;5.07;2.13;;;;;;;20.19;38.50;100179.34;5132929;28;20034;-73
2022/06/29 02:20:03;;;;;;;7.10;1.90;;;;;;;20.24;38.59;100176.97;5132892;28;20035;-73
2022/06/29 02:22:28;;;;;;;4.55;2.40;;;;;;;20.14;38.50;100174.47;5133510;28;20107;-71
2022/06/29 02:24:54;;;;;;;8.00;2.10;;;;;;;20.12;38.65;100176.47;5133373;28;20077;-73
2022/06/29 02:27:19;;;;;;;3.75;1.75;;;;;;;20.22;38.70;100176.31;5133273;28;20035;-72
2022/06/29 02:29:46;;;;;;;9.02;2.47;;;;;;;20.55;38.31;100173.59;5133175;28;20031;-73
2022/06/29 02:34:55;;;;;;;6.20;1.95;;;;;;;21.14;37.59;100161.66;5133491;28;20031;-72
2022/06/29 02:37:21;;;;;;;4.53;1.73;;;;;;;21.20;37.12;100163.69;5132533;28;20023;-73
2022/06/29 02:39:47;;;;;;;6.05;2.03;;;;;;;21.12;36.97;100169.94;5133634;28;20378;-72
2022/06/29 02:42:13;;;;;;;6.75;1.95;;;;;;;20.91;37.07;100161.59;5135265;27;20027;-72
2022/06/29 02:44:39;;;;;;;4.05;2.22;;;;;;;20.80;37.38;100158.25;5136839;27;20035;-73
2022/06/29 02:47:06;;;;;;;10.13;2.20;;;;;;;20.68;37.49;100160.44;5136490;27;20104;-73
2022/06/29 02:49:32;;;;;;;11.13;1.98;;;;;;;20.54;37.74;100158.47;5136964;27;20060;-72
2022/06/29 02:51:57;;;;;;;7.30;1.60;;;;;;;20.37;38.07;100153.09;5136581;27;20111;-73
2022/06/29 02:54:23;;;;;;;3.55;1.75;;;;;;;20.31;37.96;100151.13;5136670;27;20027;-72
2022/06/29 02:56:48;;;;;;;3.38;1.92;;;;;;;20.33;38.00;100162.53;5137211;27;20038;-73
2022/06/29 02:59:14;;;;;;;4.18;1.67;;;;;;;20.40;38.17;100160.84;5136788;27;20451;-72
2022/06/29 03:01:39;;;;;;;5.95;1.90;;;;;;;20.42;37.77;100161.50;5136601;27;20058;-72
2022/06/29 03:04:05;;;;;;;10.82;2.00;;;;;;;20.46;37.92;100155.78;5135754;27;20031;-72
2022/06/29 03:06:30;;;;;;;6.28;2.78;;;;;;;20.51;37.86;100158.81;5136015;27;20502;-75
2022/06/29 03:08:56;;;;;;;4.75;1.65;;;;;;;20.52;37.95;100153.25;5136094;27;20118;-74
2022/06/29 03:11:22;;;;;;;8.05;1.83;;;;;;;20.57;38.05;100150.91;5136418;27;20035;-72
2022/06/29 03:13:47;;;;;;;5.90;1.83;;;;;;;20.83;37.60;100162.44;5136375;27;20435;-72
2022/06/29 03:16:13;;;;;;;4.78;1.77;;;;;;;21.00;37.33;100155.19;5136496;27;20118;-72
2022/06/29 03:18:39;;;;;;;6.85;2.38;;;;;;;21.27;37.12;100150.34;5135972;27;20034;-73
2022/06/29 03:21:05;;;;;;;7.82;2.53;;;;;;;21.64;36.50;100146.97;5136250;27;20077;-73
2022/06/29 03:23:30;;;;;;;5.55;2.53;;;;;;;22.03;35.71;100145.16;5115365;28;20035;-72
2022/06/29 03:25:56;;;;;;;12.05;4.35;;;;;;;22.22;35.35;100142.97;5115767;28;20042;-73
2022/06/29 03:28:21;;;;;;;6.63;2.25;;;;;;;22.46;34.92;100141.09;5133283;27;20035;-74
2022/06/29 03:30:46;;;;;;;7.18;3.13;;;;;;;22.79;34.40;100140.75;5136227;27;20035;-74
2022/06/29 03:33:12;;;;;;;9.38;2.40;;;;;;;22.97;34.54;100151.16;5136346;27;20035;-72
2022/06/29 03:35:38;;;;;;;5.20;1.90;;;;;;;23.03;34.05;100136.91;5136138;27;20031;-72
2022/06/29 03:38:03;;;;;;;5.57;2.03;;;;;;;23.01;34.13;100139.81;5135168;27;20042;-71
2022/06/29 03:40:29;;;;;;;11.57;2.10;;;;;;;22.81;34.42;100146.78;5136199;27;20039;-72
2022/06/29 03:42:55;;;;;;;6.60;2.33;;;;;;;22.67;34.61;100141.19;5131375;27;20371;-73
2022/06/29 03:45:22;;;;;;;10.48;1.90;;;;;;;22.67;34.38;100146.59;5115408;28;20070;-72
2022/06/29 03:47:48;;;;;;;3.95;1.80;;;;;;;22.67;34.54;100143.06;5126174;27;20031;-70
2022/06/29 03:50:14;;;;;;;6.95;2.28;;;;;;;22.66;34.68;100146.78;5135894;27;20023;-70
2022/06/29 03:52:39;;;;;;;8.88;2.65;;;;;;;22.54;34.58;100152.66;5135725;27;20155;-72
2022/06/29 03:55:06;;;;;;;4.95;1.75;;;;;;;22.40;34.98;100150.75;5135405;27;20144;-71
2022/06/29 03:57:32;;;;;;;5.75;1.95;;;;;;;22.46;35.01;100157.28;5134493;27;20061;-71
2022/06/29 03:59:58;;;;;;;13.23;2.85;;;;;;;22.46;34.75;100151.88;5135470;27;20077;-71
2022/06/29 04:02:25;;;;;;;7.93;2.35;;;;;;;22.28;35.01;100144.13;5135566;27;20027;-72
2022/06/29 04:04:50;;;;;;;6.35;2.10;;;;;;;22.12;35.46;100147.78;5136074;27;20058;-71
2022/06/29 04:07:16;;;;;;;12.52;2.17;;;;;;;22.12;35.45;100153.19;5133293;27;20118;-71
2022/06/29 04:09:41;;;;;;;4.43;2.00;;;;;;;22.15;35.48;100142.88;5135802;27;20434;-71
2022/06/29 04:12:07;;;;;;;6.90;2.30;;;;;;;22.15;35.44;100137.47;5120397;27;20080;-71
2022/06/29 04:14:33;;;;;;;5.97;2.40;;;;;;;22.00;35.44;100147.38;5114526;28;20074;-71
2022/06/29 04:16:59;;;;;;;6.13;1.90;;;;;;;21.81;35.54;100130.69;5115994;27;20391;-72
2022/06/29 04:19:25;;;;;;;7.70;2.33;;;;;;;21.69;35.70;100138.34;5135224;27;20402;-72
2022/06/29 04:21:51;;;;;;;4.35;2.25;;;;;;;21.71;35.93;100127.38;5134147;27;20566;-73
2022/06/29 04:24:17;;;;;;;3.67;1.85;;;;;;;21.84;36.04;100132.19;5135245;27;20061;-73
2022/06/29 04:26:44;;;;;;;20.48;4.18;;;;;;;21.91;35.65;100128.59;5116541;27;20030;-71
2022/06/29 04:29:09;;;;;;;13.38;2.22;;;;;;;21.93;35.98;100128.41;5135011;27;20077;-71
2022/06/29 04:31:35;;;;;;;23.95;2.72;;;;;;;21.93;36.19;100140.03;5134884;27;20070;-71
2022/06/29 04:34:01;;;;;;;10.00;2.22;;;;;;;22.01;35.78;100133.72;5134714;27;20063;-71
2022/06/29 04:36:28;;;;;;;16.70;3.15;;;;;;;22.19;35.56;100128.00;5134611;27;20031;-72
2022/06/29 04:38:54;;;;;;;8.52;2.05;;;;;;;22.61;34.93;100135.72;5134630;27;20489;-72
2022/06/29 04:41:20;;;;;;;14.20;2.50;;;;;;;23.25;33.82;100134.31;5134132;27;20092;-71
2022/06/29 04:43:46;;;;;;;11.45;1.50;;;;;;;23.77;32.63;100146.69;5133767;27;20042;-71
2022/06/29 04:46:22;;;;;;;12.85;2.22;;;;;;;24.06;32.37;100146.78;5134251;27;20031;-71
2022/06/29 04:48:58;;;;;;;6.63;1.98;;;;;;;24.38;32.13;100142.66;5134676;27;20038;-71
2022/06/29 04:51:25;;;;;;;4.93;1.77;;;;;;;24.72;30.86;100140.19;5134609;27;20046;-71
2022/06/29 04:53:54;;;;;;;4.53;1.33;;;;;;;25.02;30.53;100141.81;5134559;27;20035;-72
2022/06/29 04:56:22;;;;;;;5.45;1.83;;;;;;;25.36;30.08;100146.31;5134453;27;20064;-72
2022/06/29 04:58:48;;;;;;;4.97;1.50;;;;;;;25.61;30.07;100142.25;5134188;27;20429;-72
2022/06/29 05:01:14;;;;;;;5.80;2.05;;;;;;;25.88;29.76;100146.69;5134384;27;20050;-73
2022/06/29 05:03:39;;;;;;;6.93;1.90;;;;;;;26.13;29.41;100146.09;5133909;27;20470;-72
2022/06/29 05:06:05;;;;;;;6.97;1.70;;;;;;;26.31;29.31;100150.03;5134181;27;20031;-72
2022/06/29 05:08:31;;;;;;;5.63;1.92;;;;;;;26.37;29.08;100149.22;5133169;27;20474;-71
2022/06/29 05:10:57;;;;;;;9.57;2.38;;;;;;;26.47;28.82;100152.31;5134504;27;20027;-72
2022/06/29 05:13:22;;;;;;;4.65;1.50;;;;;;;26.57;28.66;100154.63;5134142;27;20026;-72
2022/06/29 05:15:48;;;;;;;9.05;2.60;;;;;;;26.38;28.16;100153.59;5133897;27;20055;-72
2022/06/29 05:18:13;;;;;;;6.20;1.15;;;;;;;25.77;28.23;100163.56;5133386;27;20038;-72
2022/06/29 05:20:39;;;;;;;1.88;1.23;;;;;;;24.80;28.79;100166.28;5121108;27;20035;-73
2022/06/29 05:23:04;;;;;;;3.35;1.30;;;;;;;24.64;29.31;100164.69;5129115;27;20126;-72
2022/06/29 05:25:31;;;;;;;3.80;1.17;;;;;;;24.76;29.40;100167.72;5133940;27;20058;-71
2022/06/29 05:27:57;;;;;;;6.40;1.20;;;;;;;24.92;29.01;100159.28;5133619;27;20023;-72
2022/06/29 05:30:22;;;;;;;1.75;1.02;;;;;;;25.23;28.69;100173.38;5134236;27;20440;-73
2022/06/29 05:32:47;;;;;;;5.20;1.23;;;;;;;25.57;28.25;100158.91;5124206;27;20034;-71
2022/06/29 05:35:13;;;;;;;2.30;1.42;;;;;;;25.84;27.98;100158.97;5113422;28;20076;-72
2022/06/29 05:37:39;;;;;;;2.00;0.90;;;;;;;25.99;27.41;100155.22;5124102;27;20496;-73
2022/06/29 05:40:05;;;;;;;3.60;1.33;;;;;;;25.74;27.71;100156.66;5134099;27;20390;-72
2022/06/29 05:42:30;;;;;;;4.03;1.10;;;;;;;25.72;27.60;100155.19;5129698;27;20110;-73
2022/06/29 05:44:56;;;;;;;7.75;2.53;;;;;;;25.84;27.48;100169.81;5133719;27;20031;-72
2022/06/29 05:47:21;;;;;;;6.38;1.50;;;;;;;26.01;27.19;100164.00;5133412;27;20624;-72
2022/06/29 05:49:47;;;;;;;4.07;1.05;;;;;;;26.24;27.34;100155.47;5133785;27;20394;-72
2022/06/29 05:52:13;;;;;;;4.65;1.23;;;;;;;26.48;27.12;100153.16;5133391;27;20505;-72
2022/06/29 05:54:38;;;;;;;3.95;1.60;;;;;;;26.53;26.56;100144.41;5133390;27;20107;-71
2022/06/29 05:57:05;;;;;;;2.47;1.13;;;;;;;26.08;26.71;100142.31;5133518;27;20035;-71
2022/06/29 05:59:31;;;;;;;5.20;1.35;;;;;;;25.70;26.95;100147.28;5132267;27;20058;-72
2022/06/29 06:01:57;;;;;;;2.25;1.30;;;;;;;25.60;27.52;100136.00;5133320;27;20031;-71
2022/06/29 06:04:22;;;;;;;4.28;1.50;;;;;;;25.83;27.76;100141.03;5132911;28;20092;-72
2022/06/29 06:06:48;;;;;;;4.32;1.20;;;;;;;25.97;27.67;100136.47;5133458;28;20110;-72
2022/06/29 06:09:14;;;;;;;5.43;1.80;;;;;;;26.00;27.80;100130.63;5133558;28;20065;-74
2022/06/29 06:11:40;;;;;;;1.85;1.27;;;;;;;25.97;27.85;100131.03;5133292;28;20050;-72
2022/06/29 06:14:05;;;;;;;6.68;1.70;;;;;;;25.92;27.68;100128.13;5132391;28;20043;-72
2022/06/29 06:16:30;;;;;;;7.43;1.33;;;;;;;25.79;28.27;100128.97;5136483;27;20043;-71
2022/06/29 06:18:56;;;;;;;6.00;1.85;;;;;;;25.75;28.42;100124.97;5137809;27;20045;-72
2022/06/29 06:21:22;;;;;;;2.38;1.55;;;;;;;25.65;28.47;100119.97;5132828;27;20030;-70
2022/06/29 06:27:09;;;;;;;5.65;1.60;;;;;;;25.32;29.29;100127.97;5137330;27;20042;-72
2022/06/29 06:29:34;;;;;;;3.20;1.38;;;;;;;25.17;29.33;100118.16;5137346;27;20018;-72
2022/06/29 06:32:01;;;;;;;7.75;1.67;;;;;;;25.03;29.72;100113.72;5136611;27;20501;-70
2022/06/29 06:34:27;;;;;;;18.13;2.67;;;;;;;24.91;30.12;100110.75;5137252;27;20031;-71
2022/06/29 06:36:52;;;;;;;4.55;1.40;;;;;;;24.87;30.20;100110.31;5137327;27;20030;-71
2022/06/29 06:39:18;;;;;;;3.00;1.45;;;;;;;24.68;30.19;100117.28;5137024;27;20035;-71
2022/06/29 06:41:44;;;;;;;3.45;1.73;;;;;;;24.48;30.03;100112.56;5136286;27;20039;-71
2022/06/29 06:44:09;;;;;;;5.22;1.80;;;;;;;24.21;30.36;100112.41;5121441;27;20035;-72
2022/06/29 06:46:35;;;;;;;5.30;1.70;;;;;;;24.04;30.32;100100.19;5132572;27;20034;-72
2022/06/29 06:49:01;;;;;;;7.22;1.85;;;;;;;23.95;30.73;100102.16;5136587;27;20100;-72
2022/06/29 06:51:26;;;;;;;5.53;2.00;;;;;;;24.00;31.09;100096.19;5136551;27;20429;-72
2022/06/29 06:53:52;;;;;;;7.50;1.85;;;;;;;23.89;31.08;100101.09;5137578;27;20038;-72
2022/06/29 06:56:18;;;;;;;6.53;1.83;;;;;;;23.88;31.11;100087.78;5137246;27;20047;-71
2022/06/29 06:58:44;;;;;;;2.80;1.52;;;;;;;23.91;31.00;100093.63;5133371;27;20046;-69
2022/06/29 07:01:10;;;;;;;6.05;1.63;;;;;;;23.88;30.48;100090.47;5136336;27;20043;-70
2022/06/29 07:03:36;;;;;;;3.55;1.55;;;;;;;23.54;30.46;100095.56;5136502;27;20042;-71
2022/06/29 07:06:06;;;;;;;6.88;1.95;;;;;;;23.46;30.77;100093.00;5136848;27;20468;-71
2022/06/29 07:08:33;;;;;;;3.67;1.80;;;;;;;23.47;31.20;100092.78;5136455;27;20437;-71
2022/06/29 07:10:59;;;;;;;5.22;1.65;;;;;;;23.57;30.73;100095.19;5129038;27;20106;-71
2022/06/29 07:13:26;;;;;;;5.47;1.67;;;;;;;23.58;30.78;100094.16;5132386;27;20038;-71
2022/06/29 07:15:51;;;;;;;3.47;1.55;;;;;;;23.42;30.84;100100.66;5136628;27;20035;-71
2022/06/29 07:18:16;;;;;;;3.72;1.60;;;;;;;23.42;31.35;100091.69;5136182;27;20054;-70
2022/06/29 07:20:42;;;;;;;5.80;2.00;;;;;;;23.49;31.46;100102.56;5136319;27;20497;-72
2022/06/29 07:23:08;;;;;;;11.18;1.90;;;;;;;23.35;31.08;100096.19;5135230;27;20026;-72
2022/06/29 07:25:33;;;;;;;8.73;1.45;;;;;;;23.21;30.96;100089.81;5136573;27;20035;-70
2022/06/29 07:27:59;;;;;;;3.13;1.63;;;;;;;23.09;30.44;100094.81;5135363;27;20038;-70
2022/06/29 07:30:24;;;;;;;2.92;1.98;;;;;;;22.81;30.24;100082.88;5135891;27;20059;-70
2022/06/29 07:32:50;;;;;;;5.57;1.85;;;;;;;22.77;30.81;100089.66;5134872;27;20035;-72
2022/06/29 07:35:15;;;;;;;3.17;1.10;;;;;;;22.91;30.71;100093.38;5136338;27;20114;-72
2022/06/29 07:37:42;;;;;;;3.22;1.98;;;;;;;22.99;30.51;100087.06;5136083;27;20030;-71
2022/06/29 07:40:08;;;;;;;3.80;1.67;;;;;;;22.99;30.58;100077.06;5136116;27;20113;-71
2022/06/29 07:42:35;;;;;;;6.40;1.48;;;;;;;23.06;30.04;100087.13;5134921;27;20038;-72
2022/06/29 07:45:05;;;;;;;5.95;1.50;;;;;;;22.83;30.01;100088.94;5135952;27;20034;-72
2022/06/29 07:47:31;;;;;;;7.22;1.60;;;;;;;22.69;29.97;100081.69;5135484;27;20027;-71
2022/06/29 07:49:58;;;;;;;5.65;2.55;;;;;;;22.66;29.88;100087.44;5136016;27;20026;-72
2022/06/29 07:52:23;;;;;;;6.55;1.25;;;;;;;22.70;29.54;100084.19;5135009;27;20073;-72
2022/06/29 07:54:49;;;;;;;1.75;1.10;;;;;;;22.72;29.69;100084.00;5135680;27;20058;-71
2022/06/29 07:57:14;;;;;;;3.22;1.27;;;;;;;22.75;29.91;100080.94;5134359;27;20027;-69
2022/06/29 07:59:40;;;;;;;3.72;1.40;;;;;;;22.83;29.80;100067.34;5134624;27;20520;-72
2022/06/29 08:02:06;;;;;;;5.03;1.40;;;;;;;22.95;29.96;100069.56;5135496;27;20034;-72
2022/06/29 08:04:32;;;;;;;3.85;1.45;;;;;;;22.98;29.19;100064.59;5135537;27;20080;-71
2022/06/29 08:06:57;;;;;;;4.90;1.92;;;;;;;23.04;29.32;100060.31;5134722;27;20031;-71
2022/06/29 08:09:23;;;;;;;2.13;1.35;;;;;;;23.14;29.25;100063.56;5135465;27;20023;-71
2022/06/29 08:11:51;;;;;;;4.45;1.75;;;;;;;23.12;29.53;100049.41;5135212;27;20454;-70
2022/06/29 08:14:19;;;;;;;4.22;2.22;;;;;;;22.95;29.82;100047.97;5135677;27;20035;-71
2022/06/29 08:16:45;;;;;;;3.95;1.30;;;;;;;22.81;29.86;100052.34;5135113;27;20054;-70
2022/06/29 08:19:10;;;;;;;5.07;2.22;;;;;;;22.77;30.03;100046.50;5134875;27;20526;-71
2022/06/29 08:21:35;;;;;;;8.45;1.70;;;;;;;22.78;30.20;100039.25;5135304;27;20038;-71
2022/06/29 08:24:01;;;;;;;2.90;1.50;;;;;;;22.82;30.33;100041.41;5135686;27;20065;-72
2022/06/29 08:26:26;;;;;;;2.75;1.50;;;;;;;22.67;30.27;100045.97;5134147;27;20035;-71
2022/06/29 08:28:52;;;;;;;2.83;1.33;;;;;;;22.58;30.26;100041.69;5134899;27;20038;-73
2022/06/29 08:31:18;;;;;;;5.47;1.38;;;;;;;22.54;30.51;100044.78;5135164;27;20042;-72
2022/06/29 08:33:43;;;;;;;2.75;1.88;;;;;;;22.41;30.47;100052.66;5116240;27;20479;-71
2022/06/29 08:36:09;;;;;;;3.67;1.42;;;;;;;22.22;30.41;100041.41;5114742;28;20386;-71
2022/06/29 08:38:35;;;;;;;8.45;2.42;;;;;;;22.24;30.37;100039.34;5132057;27;20149;-71
2022/06/29 08:41:00;;;;;;;7.15;1.65;;;;;;;22.32;30.50;100038.44;5134407;27;20482;-72
2022/06/29 08:43:27;;;;;;;5.65;1.75;;;;;;;22.45;30.43;100035.09;5125174;27;20031;-73
2022/06/29 08:45:53;;;;;;;3.40;1.70;;;;;;;22.58;30.46;100030.91;5123312;27;20088;-70
2022/06/29 08:48:19;;;;;;;3.13;1.60;;;;;;;22.76;30.66;100028.66;5134081;27;20035;-70
2022/06/29 08:50:54;;;;;;;3.67;1.73;;;;;;;22.82;30.25;100036.00;5134950;27;20031;-70
2022/06/29 08:53:21;;;;;;;3.97;1.50;;;;;;;22.80;30.36;100029.09;5134498;27;20041;-71
2022/06/29 08:55:49;;;;;;;4.38;1.40;;;;;;;22.76;30.03;100031.34;5134336;27;20026;-71
2022/06/29 08:58:21;;;;;;;3.78;2.17;;;;;;;22.58;30.20;100029.06;5114750;27;20417;-71
2022/06/29 09:00:51;;;;;;;2.05;1.42;;;;;;;22.58;30.12;100020.13;5133428;27;20062;-69
2022/06/29 09:03:20;;;;;;;7.47;1.58;;;;;;;22.66;30.07;100022.72;5132671;27;20070;-72
2022/06/29 09:05:57;;;;;;;5.70;1.45;;;;;;;22.66;30.01;100012.75;5133697;27;20031;-70
2022/06/29 09:08:23;;;;;;;4.13;1.45;;;;;;;22.65;30.01;100018.34;5130547;27;20031;-71
2022/06/29 09:10:49;;;;;;;10.65;1.77;;;;;;;22.73;30.52;100022.81;5132077;27;20046;-70
2022/06/29 09:13:19;;;;;;;8.98;1.45;;;;;;;22.81;30.24;100015.44;5130887;27;20468;-71
2022/06/29 09:15:45;;;;;;;4.30;1.52;;;;;;;22.83;30.10;100017.94;5131194;27;20027;-70
2022/06/29 09:18:37;;;;;;;7.93;1.77;;;;;;;22.83;30.00;100010.69;5132046;27;20045;-71
2022/06/29 09:21:05;;;;;;;4.15;1.50;;;;;;;22.84;30.00;100009.66;5121861;27;20035;-70
2022/06/29 09:23:31;;;;;;;3.80;1.58;;;;;;;22.84;30.17;100016.91;5130642;27;20547;-71
2022/06/29 09:25:57;;;;;;;5.90;1.80;;;;;;;22.78;30.36;100015.00;5131023;27;20118;-71
2022/06/29 09:28:30;;;;;;;2.67;1.55;;;;;;;22.67;30.28;100013.59;5130900;27;20041;-71
2022/06/29 09:30:57;;;;;;;8.55;2.00;;;;;;;22.63;30.05;100004.22;5129758;27;20023;-72
2022/06/29 09:33:24;;;;;;;3.75;1.73;;;;;;;22.66;29.85;100004.66;5132987;27;20099;-72
2022/06/29 09:36:08;;;;;;;6.22;1.60;;;;;;;22.67;29.85;99997.41;5130262;27;20046;-72
2022/06/29 09:38:34;;;;;;;3.30;1.70;;;;;;;22.65;30.00;100002.16;5130231;27;20084;-67
2022/06/29 09:41:08;;;;;;;5.25;1.95;;;;;;;22.73;30.29;100002.03;5130431;27;20035;-71
2022/06/29 09:43:36;;;;;;;24.38;4.63;;;;;;;22.90;30.08;100012.63;5130848;27;20112;-70
2022/06/29 09:46:03;;;;;;;3.33;1.40;;;;;;;22.95;29.74;100013.72;5133041;27;20474;-68
2022/06/29 09:48:54;;;;;;;5.38;1.73;;;;;;;23.02;29.59;100011.09;5126181;27;20620;-69
2022/06/29 09:51:33;;;;;;;7.53;1.58;;;;;;;23.09;29.85;100011.16;5129044;27;20038;-71
2022/06/29 09:54:06;;;;;;;7.85;2.00;;;;;;;23.13;29.57;100013.31;5131695;27;20042;-72
2022/06/29 09:56:33;;;;;;;7.88;1.77;;;;;;;23.13;29.70;100002.50;5125043;27;20042;-71
2022/06/29 09:59:01;;;;;;;3.65;1.83;;;;;;;23.15;29.94;100008.56;5124992;27;20529;-68
2022/06/29 10:04:12;;;;;;;4.20;2.30;;;;;;;23.06;30.05;100004.28;5132137;27;20077;-65
2022/06/29 10:06:38;;;;;;;5.43;1.70;;;;;;;23.12;30.07;100003.53;5129001;28;20039;-68
2022/06/29 10:09:04;;;;;;;4.60;2.20;;;;;;;23.21;29.93;99998.03;5133299;28;20042;-67
2022/06/29 10:15:10;;;;;;;5.68;1.85;;;;;;;23.21;29.88;99992.63;5133354;28;20041;-66
2022/06/29 10:17:50;;;;;;;8.57;2.30;;;;;;;23.29;29.82;99992.50;5123204;28;20043;-67
2022/06/29 10:20:34;;;;;;;5.28;2.08;;;;;;;23.34;29.85;99997.34;5131914;28;20039;-70
2022/06/29 10:22:59;;;;;;;8.65;2.03;;;;;;;23.43;29.98;99997.00;5131023;28;20039;-68
2022/06/29 10:25:28;;;;;;;5.53;2.15;;;;;;;23.47;29.76;99992.88;5132671;28;20043;-69
2022/06/29 10:28:23;;;;;;;6.55;1.85;;;;;;;23.51;29.66;99998.75;5129864;28;20035;-66
2022/06/29 10:30:49;;;;;;;7.53;1.95;;;;;;;23.51;29.31;99992.47;5110980;28;20051;-68
2022/06/29 10:33:30;;;;;;;7.00;1.80;;;;;;;23.54;29.55;99998.31;5131836;28;20039;-67
2022/06/29 10:36:08;;;;;;;8.15;1.95;;;;;;;23.57;29.25;99994.41;5128352;28;20731;-68
2022/06/29 10:39:03;;;;;;;5.45;2.00;;;;;;;23.56;29.38;99992.75;5127296;28;20131;-70
2022/06/29 10:45:03;;;;;;;4.55;2.05;;;;;;;23.40;28.64;99980.34;5130457;28;20030;-70
2022/06/29 10:47:29;;;;;;;8.50;1.65;;;;;;;23.17;28.49;99975.97;5132082;28;20084;-72
2022/06/29 10:50:13;;;;;;;4.00;2.10;;;;;;;23.07;28.52;99970.88;5133157;28;20079;-70
2022/06/29 10:52:39;;;;;;;3.05;1.40;;;;;;;22.90;28.89;99969.44;5132074;28;20054;-72
2022/06/29 10:55:06;;;;;;;2.55;1.55;;;;;;;22.85;28.79;99975.41;5132920;28;20056;-70
2022/06/29 10:57:36;;;;;;;2.95;1.88;;;;;;;22.86;29.02;99966.31;5132065;28;20027;-70
2022/06/29 11:00:06;;;;;;;7.30;1.67;;;;;;;22.89;28.90;99967.78;5132528;28;20058;-70
2022/06/29 11:02:31;;;;;;;5.35;1.48;;;;;;;22.89;29.00;99968.63;5134094;27;20041;-72
2022/06/29 11:04:58;;;;;;;4.28;1.90;;;;;;;22.97;28.98;99970.38;5137129;27;20537;-69
2022/06/29 11:12:54;;;;;;;6.65;1.92;;;;;;;23.28;29.15;99967.38;5135734;27;20587;-69
2022/06/29 11:15:47;;;;;;;8.88;1.65;;;;;;;23.28;28.94;99967.38;5136903;27;20118;-70
2022/06/29 11:18:15;;;;;;;4.38;1.50;;;;;;;23.26;28.51;99969.41;5136539;27;20034;-71
2022/06/29 11:20:45;;;;;;;5.15;1.38;;;;;;;23.32;28.70;99965.09;5135976;27;20039;-71
2022/06/29 11:23:14;;;;;;;3.67;1.33;;;;;;;23.31;28.61;99960.72;5136453;27;20113;-70
2022/06/29 11:25:44;;;;;;;2.67;1.48;;;;;;;23.27;28.08;99954.06;5136733;27;20030;-71
2022/06/29 11:28:10;;;;;;;4.85;1.30;;;;;;;23.27;28.02;99957.59;5136428;27;20068;-70
2022/06/29 11:30:37;;;;;;;3.90;1.50;;;;;;;23.29;28.46;99950.13;5135837;27;20481;-70
2022/06/29 11:33:10;;;;;;;4.38;1.75;;;;;;;23.39;28.85;99944.41;5122831;27;20032;-71
2022/06/29 11:35:38;;;;;;;4.95;1.70;;;;;;;23.51;29.07;99933.06;5124238;27;20030;-72
2022/06/29 11:38:05;;;;;;;2.35;1.70;;;;;;;23.59;28.64;99941.03;5136545;27;20491;-71
2022/06/29 11:40:35;;;;;;;3.38;1.20;;;;;;;23.57;28.33;99932.28;5135494;27;20027;-70
2022/06/29 11:43:12;;;;;;;7.75;1.50;;;;;;;23.39;28.10;99928.22;5134079;27;20486;-71
2022/06/29 11:45:43;;;;;;;5.15;1.40;;;;;;;23.37;28.43;99924.88;5135972;27;20031;-71
2022/06/29 11:48:19;;;;;;;4.22;1.65;;;;;;;23.30;28.02;99924.81;5135917;27;20367;-71